New Wilmington, PA (16142)

3:59 AM EST on December 10, 2016 (GMT -0500)
Westminster College Field Station | | Change Station

Elev 1010 ft 41.11 °N, 80.32 °W | Updated 3 seconds ago

Overcast
Overcast
25.1 °F
Feels Like 16 °F
N
8.0
Wind Variable Wind from SSW

Today
High -- | Low -- °F
--% Chance of Precip.
Yesterday
High -- | Low -- °F
Precip. -- in
Pressure 30.50 in
Visibility 10.0 miles
Clouds Mostly Cloudy 5000 ft
Windchill 16 °F
Dew Point 21 °F
Humidity 84%
Rainfall 0.00 in
Snow Depth Not available.
7:36 AM 4:52 PM
Waxing Gibbous, 82% visible
METAR KUCP 100856Z AUTO 24008KT 10SM BKN050 M04/M08 A3041 RMK AO2 SLP327 T10441083 51007 FZRANO $
Pressure 30.50 in
Visibility 10.0 miles
Clouds Mostly Cloudy 5000 ft
Windchill 16 °F
Dew Point 21 °F
Humidity 84%
Rainfall 0.00 in
Snow Depth Not available.
7:36 AM 4:52 PM
Waxing Gibbous, 82% visible
METAR KUCP 100856Z AUTO 24008KT 10SM BKN050 M04/M08 A3041 RMK AO2 SLP327 T10441083 51007 FZRANO $

10-Day Weather Forecast

Almanac

Astronomy

Dec. 10, 2016 Rise Set
Actual Time
Civil Twilight
Nautical Twilight
Astronomical Twilight
Moon
Length of Visible Light
Length of Day
Tomorrow will be .
, % of the Moon is Illuminated

Today's Extremes

State Highs State Lows

Community

WunderPhotos

Upload Photos

1,956,538 photos uploaded!

WunderBlog® & News

Nearby

Air Quality

  Air Quality AQ Index Pollutant
Not available.

Snow Depth

Station Depth Elevation

Earthquake Activity

City Distance Mag. Time & Date
Minimum magnitude displayed is 2.5.

Coastal Water Temperatures

Place Temperature

Stations

Nearby Weather Stations

Station Location Temp. Windchill Dew Point Humidity Wind Precip. Elev Updated Type
                   

Watches & Warnings

There are currently no watches in effect.